• Join FlightAware (Why Join?)
  • Login
  • US Flag 
03:54AM EST


 

Airport Tracker/Info


-or-


 

Live Flight TrackerFlight Track Log ✈ N411KC ✈ 01-Apr-2014 ✈ KEDC - TS15

Flight Track Log - Related Links

Times and Time Zones

All times are in EDT time to prevent confusion due to time zone crossing. See the N411KC flight status page for this flight to view local times or setup timezone preferences in your user account.

Time Position Orientation Groundspeed Altitude Reporting Facility
EDT Latitude Longitude Course Direction KTS MPH feet Rate Location/Type
10:16AM 30.4475 -97.5528 277° West 189 217 4,400  Level Houston Center
10:17AM 30.4419 -97.6131 264° West 193 222 5,900 1,560 Climbing Houston Center
10:18AM 30.4322 -97.6861 261° West 192 221 7,700 1,620 Climbing Houston Center
10:19AM 30.4197 -97.7464 256° West 191 220 9,300 1,380 Climbing Houston Center
10:20AM 30.4288 -97.9754 277° West  Level FlightAware Approximate
10:21AM 30.4367 -98.0470 277° West  Level FlightAware Approximate
10:21AM 30.4142 -97.8061 264° West 188 216 10,600  Level Houston Center
10:22AM 30.4447 -98.1186 277° West  Level FlightAware Approximate
10:22AM 30.4142 -97.8675 270° West 190 219 12,000  Level Houston Center
10:23AM 30.4197 -97.9303 276° West 199 229 12,900 480 Climbing Houston Center
10:24AM 30.4269 -98.0000 277° West 223 257 13,000  Climbing Houston Center
10:25AM 30.4353 -98.0906 276° West 234 269 13,000 480 Level Houston Center
10:26AM 30.4422 -98.1619 276° West 218 251 14,000 960 Climbing Houston Center
10:27AM 30.4486 -98.2278 276° West 206 237 15,100 960 Climbing Houston Center
10:28AM 30.4553 -98.2936 277° West 206 237 16,100 960 Climbing Houston Center
10:29AM 30.4614 -98.3581 276° West 202 232 17,200 960 Climbing Houston Center
10:30AM 30.4675 -98.4194 277° West 195 224 18,200 960 Climbing Houston Center
10:31AM 30.4747 -98.4933 276° West 195 224 19,200 960 Climbing Houston Center
10:32AM 30.4806 -98.5556 276° West 194 223 20,200 960 Climbing Houston Center
10:33AM 30.4869 -98.6203 277° West 191 220 21,200 960 Climbing Houston Center
10:34AM 30.4928 -98.6794 277° West 187 215 22,200 840 Climbing Houston Center
10:35AM 30.4986 -98.7411 276° West 184 212 23,000 660 Climbing Houston Center
10:36AM 30.5039 -98.7997 276° West 184 212 23,600 480 Climbing Houston Center
10:37AM 30.5092 -98.8542 276° West 188 216 24,000 180 Climbing Houston Center
10:38AM 30.5131 -98.9325 273° West 209 241 24,000  Level Houston Center
10:39AM 30.5053 -99.0019 263° West 213 245 24,000  Level Houston Center
10:40AM 30.4981 -99.0728 263° West 216 249 24,000  Level Houston Center
10:41AM 30.4914 -99.1442 264° West 218 251 24,000  Level Houston Center
10:42AM 30.4847 -99.2122 264° West 219 252 24,000  Level Houston Center
10:43AM 30.4775 -99.2833 263° West 220 253 24,000  Level Houston Center
10:44AM 30.4692 -99.3700 264° West 223 257 24,000  Level Houston Center
10:45AM 30.4619 -99.4417 263° West 224 258 24,000  Level Houston Center
10:46AM 30.4547 -99.5125 263° West 223 257 24,000  Level Houston Center
10:47AM 30.4481 -99.5828 264° West 222 255 24,000  Level Houston Center
10:48AM 30.4408 -99.6531 263° West 221 254 24,000  Level Houston Center
10:49AM 30.4322 -99.7375 263° West 221 254 24,000  Level Houston Center
10:51AM 30.4250 -99.8078 263° West 221 254 24,000  Level Houston Center
10:52AM 30.4181 -99.8781 263° West 221 254 24,000  Level Houston Center
10:53AM 30.4106 -99.9486 263° West 221 254 24,000  Level Houston Center
10:54AM 30.4031 -100.0194 263° West 222 255 24,000  Level Houston Center
10:55AM 30.3942 -100.1039 263° West 222 255 24,000  Level Houston Center
10:56AM 30.3872 -100.1742 263° West 221 254 24,000  Level Houston Center
10:57AM 30.3797 -100.2439 263° West 221 254 24,000  Level Houston Center
10:58AM 30.3725 -100.3133 263° West 220 253 24,000  Level Houston Center
10:59AM 30.3650 -100.3828 263° West 220 253 24,000  Level Houston Center
11:00AM 30.3561 -100.4664 263° West 220 253 24,000  Level Houston Center
11:01AM 30.3486 -100.5358 263° West 220 253 24,000  Level Houston Center
11:02AM 30.3408 -100.6058 263° West 220 253 24,000  Level Houston Center
11:03AM 30.3336 -100.6758 263° West 220 253 24,000  Level Houston Center
11:04AM 30.3258 -100.7456 263° West 220 253 24,000  Level Houston Center
11:05AM 30.3181 -100.8156 263° West 220 253 24,000  Level Houston Center
11:06AM 30.3089 -100.8997 263° West 221 254 24,000  Level Houston Center
11:07AM 30.3008 -100.9706 263° West 221 254 24,000  Level Houston Center
11:08AM 30.2931 -101.0414 263° West 222 255 24,000  Level Houston Center
11:09AM 30.2853 -101.1122 263° West 222 255 24,000  Level Houston Center
11:10AM 30.2772 -101.1831 263° West 222 255 24,000  Level Houston Center
11:11AM 30.2675 -101.2678 262° West 222 255 24,000  Level Houston Center
11:12AM 30.2594 -101.3383 262° West 222 255 24,000  Level Houston Center
11:13AM 30.2514 -101.4092 263° West 223 257 24,000  Level Houston Center
11:14AM 30.2433 -101.4800 263° West 223 257 24,000  Level Houston Center
11:15AM 30.2350 -101.5508 262° West 223 257 24,000  Level Houston Center
11:16AM 30.2267 -101.6214 262° West 223 257 24,000  Level Houston Center
11:17AM 30.2169 -101.7067 263° West 223 257 24,000  Level Houston Center
11:18AM 30.2086 -101.7778 262° West 223 257 24,000  Level Houston Center
11:19AM 30.2000 -101.8486 262° West 224 258 24,000  Level Houston Center
11:21AM 30.1911 -101.9236 262° West 224 258 24,000  Level Houston Center
11:22AM 30.1828 -101.9950 262° West 224 258 24,000  Level Houston Center
11:23AM 30.1742 -102.0667 262° West 225 259 24,000  Level Houston Center
11:24AM 30.1656 -102.1381 262° West 224 258 24,000  Level Houston Center
11:24AM 30.1586 -102.1967 262° West 224 258 24,000  Level Albuquerque Center
11:25AM 30.1500 -102.2681 262° West 224 258 24,000  Level Albuquerque Center
11:26AM 30.1414 -102.3389 262° West 223 257 24,000  Level Albuquerque Center
11:27AM 30.1325 -102.4100 262° West 223 257 24,000  Level Albuquerque Center
11:28AM 30.1239 -102.4819 262° West 223 257 24,000  Level Albuquerque Center
11:29AM 30.1150 -102.5519 262° West 223 257 24,000  Level Albuquerque Center
11:31AM 30.1044 -102.6369 262° West 223 257 24,000  Level Albuquerque Center
11:32AM 30.0956 -102.7078 262° West 223 257 24,000  Level Albuquerque Center
11:33AM 30.0869 -102.7783 262° West 221 254 24,000 -360 Level Albuquerque Center
11:34AM 30.0778 -102.8514 262° West 237 273 23,300 -780 Descending Albuquerque Center
11:35AM 30.0672 -102.9308 261° West 253 291 22,400 -960 Descending Albuquerque Center
11:36AM 30.0569 -103.0122 262° West 254 292 21,400 -1,140 Descending Albuquerque Center
11:37AM 30.0444 -103.1094 262° West 254 292 20,100 -1,200 Descending Albuquerque Center
11:38AM 30.0344 -103.1883 262° West 254 292 19,000 -1,140 Descending Albuquerque Center
11:39AM 30.0231 -103.2678 261° West 253 291 17,800 -1,140 Descending Albuquerque Center
11:40AM 30.0136 -103.3492 262° West 254 292 16,700 -1,200 Descending Albuquerque Center
11:41AM 30.0019 -103.4319 261° West 257 296 15,400 -1,260 Descending Albuquerque Center
11:42AM 29.9900 -103.5264 262° West 258 297 14,100 -1,320 Descending Albuquerque Center
11:43AM 29.9792 -103.6086 261° West 258 297 12,700 -1,380 Descending Albuquerque Center
11:44AM 29.9683 -103.6922 262° West 260 299 11,300 -1,260 Descending Albuquerque Center
11:45AM 29.9581 -103.7731 262° West 259 298 10,100 -1,020 Descending Albuquerque Center
11:46AM 29.9472 -103.8508 261° West 254 292 9,200 -600 Descending Albuquerque Center
11:47AM 29.9356 -103.9292 260° West 251 289 8,900 -300 Descending Albuquerque Center